createdAt,value
2023-02-08T00:00:55.076Z,13.90
2023-02-08T00:03:22.180Z,13.93
2023-02-08T00:05:49.516Z,14.57
2023-02-08T00:08:16.555Z,13.10
2023-02-08T00:10:44.008Z,14.30
2023-02-08T00:13:11.036Z,13.53
2023-02-08T00:15:43.639Z,13.83
2023-02-08T00:18:10.592Z,14.83
2023-02-08T00:20:42.786Z,15.13
2023-02-08T00:23:10.588Z,14.33
2023-02-08T00:25:38.285Z,14.43
2023-02-08T00:28:09.090Z,15.17
2023-02-08T00:30:36.255Z,14.53
2023-02-08T00:33:03.674Z,14.33
2023-02-08T00:35:31.248Z,14.93
2023-02-08T00:37:58.141Z,14.17
2023-02-08T00:40:25.622Z,14.57
2023-02-08T00:42:52.567Z,14.63
2023-02-08T00:45:20.793Z,13.70
2023-02-08T00:47:47.734Z,14.50
2023-02-08T00:50:14.853Z,13.87
2023-02-08T00:52:41.794Z,13.50
2023-02-08T00:55:09.074Z,14.53
2023-02-08T00:57:36.190Z,14.47
2023-02-08T01:00:05.276Z,15.57
2023-02-08T01:02:32.366Z,14.67
2023-02-08T01:04:59.171Z,14.60
2023-02-08T01:07:26.001Z,15.57
2023-02-08T01:09:52.807Z,14.40
2023-02-08T01:12:19.666Z,15.10
2023-02-08T01:14:46.671Z,15.07
2023-02-08T01:17:13.451Z,13.97
2023-02-08T01:19:42.414Z,14.03
2023-02-08T01:22:09.410Z,15.40
2023-02-08T01:24:36.290Z,15.53
2023-02-08T01:27:03.141Z,15.30
2023-02-08T01:29:29.981Z,15.43
2023-02-08T01:31:56.819Z,15.17
2023-02-08T01:34:23.637Z,14.97
2023-02-08T01:36:50.545Z,14.83
2023-02-08T01:39:17.368Z,14.53
2023-02-08T01:41:46.616Z,15.07
2023-02-08T01:44:13.543Z,15.80
2023-02-08T01:46:51.014Z,15.47
2023-02-08T01:49:33.896Z,13.63
2023-02-08T01:52:16.407Z,14.63
2023-02-08T01:55:00.431Z,13.90
2023-02-08T01:57:28.463Z,15.13
2023-02-08T02:00:04.485Z,15.53
2023-02-08T02:02:31.471Z,15.93
2023-02-08T02:04:58.388Z,15.37
2023-02-08T02:07:29.754Z,15.53
2023-02-08T02:10:04.199Z,16.50
2023-02-08T02:12:33.171Z,13.80
2023-02-08T02:15:01.867Z,16.13
2023-02-08T02:17:28.744Z,15.83
2023-02-08T02:20:11.571Z,15.47
2023-02-08T02:23:38.114Z,15.30
2023-02-08T02:26:41.325Z,15.33
2023-02-08T02:29:30.030Z,15.43
2023-02-08T02:32:23.444Z,16.40
2023-02-08T02:35:21.516Z,15.50
2023-02-08T02:38:14.833Z,15.43
2023-02-08T02:41:51.300Z,16.63
2023-02-08T02:44:32.186Z,14.50
2023-02-08T02:47:12.446Z,14.93
2023-02-08T02:50:04.496Z,16.00
2023-02-08T02:52:48.190Z,15.63
2023-02-08T02:55:21.091Z,16.63
2023-02-08T02:57:51.767Z,17.37
2023-02-08T03:00:24.304Z,16.10
2023-02-08T03:02:51.682Z,17.13
2023-02-08T03:05:18.617Z,17.30
2023-02-08T03:08:18.511Z,16.67
2023-02-08T03:11:24.382Z,15.73
2023-02-08T03:13:57.052Z,15.23
2023-02-08T03:16:42.643Z,16.67
2023-02-08T03:19:35.346Z,16.57
2023-02-08T03:22:22.009Z,15.60
2023-02-08T03:25:03.208Z,15.33
2023-02-08T03:28:21.780Z,16.23
2023-02-08T03:31:17.865Z,14.97
2023-02-08T03:33:58.464Z,15.97
2023-02-08T03:36:40.064Z,15.37
2023-02-08T03:39:14.033Z,15.97
2023-02-08T03:41:44.800Z,15.10
2023-02-08T03:44:20.630Z,16.97
2023-02-08T03:46:55.382Z,16.47
2023-02-08T03:49:35.297Z,16.23
2023-02-08T03:52:07.704Z,17.23
2023-02-08T03:54:44.179Z,16.23
2023-02-08T03:57:25.088Z,15.13
2023-02-08T04:00:00.108Z,16.23
2023-02-08T04:02:30.511Z,18.00
2023-02-08T04:04:58.838Z,16.40
2023-02-08T04:07:25.933Z,16.43
2023-02-08T04:09:52.860Z,16.40
2023-02-08T04:12:19.861Z,16.27
2023-02-08T04:14:46.811Z,15.97
2023-02-08T04:17:13.630Z,16.30
2023-02-08T04:19:40.590Z,17.10
2023-02-08T04:22:07.488Z,16.93
2023-02-08T04:24:34.295Z,16.70
2023-02-08T04:27:01.168Z,17.23
2023-02-08T04:29:28.229Z,16.80
2023-02-08T04:31:55.130Z,17.30
2023-02-08T04:34:22.044Z,17.23
2023-02-08T04:36:48.888Z,17.17
2023-02-08T04:39:15.702Z,17.27
2023-02-08T04:41:42.600Z,17.37
2023-02-08T04:44:09.460Z,17.33
2023-02-08T04:46:36.351Z,17.70
2023-02-08T04:49:03.228Z,17.80
2023-02-08T04:51:30.050Z,17.53
2023-02-08T04:53:56.899Z,17.00
2023-02-08T04:56:23.688Z,18.30
2023-02-08T04:58:50.479Z,15.97
2023-02-08T05:01:17.448Z,17.20
2023-02-08T05:03:44.363Z,18.77
2023-02-08T05:06:11.260Z,17.97
2023-02-08T05:08:38.128Z,16.80
2023-02-08T05:11:05.155Z,17.83
2023-02-08T05:13:32.250Z,17.23
2023-02-08T05:15:59.146Z,17.20
2023-02-08T05:18:26.213Z,17.60
2023-02-08T05:20:58.322Z,16.87
2023-02-08T05:23:26.779Z,17.37
2023-02-08T05:25:54.068Z,17.47
2023-02-08T05:28:21.931Z,16.87
2023-02-08T05:30:49.199Z,16.80
2023-02-08T05:33:16.502Z,17.53
2023-02-08T05:35:45.691Z,16.67
2023-02-08T05:38:12.569Z,17.57
2023-02-08T05:40:39.646Z,16.73
2023-02-08T05:43:06.997Z,17.47
2023-02-08T05:45:33.847Z,18.00
2023-02-08T05:48:00.699Z,17.33
2023-02-08T05:50:27.734Z,17.90
2023-02-08T05:52:54.584Z,18.03
2023-02-08T05:55:21.399Z,17.87
2023-02-08T05:57:48.210Z,18.30
2023-02-08T06:00:15.838Z,18.60
2023-02-08T06:02:42.765Z,18.53
2023-02-08T06:05:09.550Z,16.97
2023-02-08T06:07:36.416Z,18.07
2023-02-08T06:10:04.278Z,17.73
2023-02-08T06:12:31.112Z,15.73
2023-02-08T06:14:57.890Z,15.97
2023-02-08T06:17:24.772Z,15.83
2023-02-08T06:19:51.596Z,17.43
2023-02-08T06:22:18.456Z,16.83
2023-02-08T06:24:45.453Z,16.67
2023-02-08T06:27:12.405Z,16.47
2023-02-08T06:29:39.195Z,17.47
2023-02-08T06:32:06.170Z,17.63
2023-02-08T06:34:33.080Z,17.70
2023-02-08T06:37:02.142Z,17.77
2023-02-08T06:39:29.697Z,17.10
2023-02-08T06:41:56.621Z,17.37
2023-02-08T06:44:24.061Z,17.43
2023-02-08T06:46:51.632Z,17.17
2023-02-08T06:49:18.536Z,16.63
2023-02-08T06:51:45.527Z,16.93
2023-02-08T06:54:12.415Z,16.97
2023-02-08T06:56:39.315Z,17.97
2023-02-08T06:59:06.145Z,18.30
2023-02-08T07:01:33.355Z,17.40
2023-02-08T07:04:00.331Z,17.37
2023-02-08T07:06:27.174Z,17.13
2023-02-08T07:08:54.020Z,17.57
2023-02-08T07:11:22.247Z,17.57
2023-02-08T07:13:51.280Z,16.67
2023-02-08T07:16:19.730Z,16.70
2023-02-08T07:18:47.345Z,17.00
2023-02-08T07:21:14.252Z,16.67
2023-02-08T07:23:41.706Z,18.10
2023-02-08T07:26:14.376Z,17.10
2023-02-08T07:28:42.001Z,16.83
2023-02-08T07:31:14.198Z,17.10
2023-02-08T07:33:41.944Z,17.03
2023-02-08T07:36:10.730Z,16.27
2023-02-08T07:38:38.418Z,16.60
2023-02-08T07:41:09.266Z,15.40
2023-02-08T07:43:38.636Z,16.07
2023-02-08T07:46:08.324Z,14.93
2023-02-08T07:48:35.955Z,16.47
2023-02-08T07:51:03.235Z,16.37
2023-02-08T07:53:30.736Z,15.70
2023-02-08T07:55:58.500Z,16.17
2023-02-08T07:58:26.651Z,15.53
2023-02-08T08:00:53.680Z,15.37
2023-02-08T08:03:21.153Z,15.60
2023-02-08T08:05:52.048Z,15.80
2023-02-08T08:08:20.103Z,15.73
2023-02-08T08:10:47.138Z,16.03
2023-02-08T08:13:14.355Z,16.30
2023-02-08T08:15:41.661Z,15.77
2023-02-08T08:18:08.724Z,15.67
2023-02-08T08:20:35.981Z,15.13
2023-02-08T08:23:02.838Z,15.27
2023-02-08T08:25:29.783Z,15.33
2023-02-08T08:27:56.735Z,15.43
2023-02-08T08:30:23.895Z,15.77
2023-02-08T08:32:50.784Z,15.73
2023-02-08T08:35:17.824Z,14.87
2023-02-08T08:37:44.703Z,14.80
2023-02-08T08:40:12.177Z,14.50
2023-02-08T08:42:41.604Z,15.40
2023-02-08T08:45:09.781Z,16.27
2023-02-08T08:47:36.664Z,15.77
2023-02-08T08:50:03.890Z,15.33
2023-02-08T08:52:30.715Z,14.77
2023-02-08T08:54:57.534Z,14.80
2023-02-08T08:57:24.374Z,15.90
2023-02-08T08:59:51.446Z,15.10
2023-02-08T09:02:18.273Z,29.23
2023-02-08T09:04:45.329Z,20.80
2023-02-08T09:07:12.238Z,15.50
2023-02-08T09:09:39.189Z,16.10
2023-02-08T09:12:06.341Z,15.10
2023-02-08T09:14:33.636Z,14.50
2023-02-08T09:17:00.552Z,15.57
2023-02-08T09:19:27.934Z,16.07
2023-02-08T09:21:55.446Z,14.93
2023-02-08T09:24:22.328Z,14.53
2023-02-08T09:26:49.230Z,16.67
2023-02-08T09:29:16.054Z,29.80
2023-02-08T09:31:43.152Z,23.87
2023-02-08T09:34:10.220Z,18.90
2023-02-08T09:36:40.142Z,15.17
2023-02-08T09:39:15.834Z,15.37
2023-02-08T09:42:13.689Z,14.47
2023-02-08T09:44:57.922Z,15.53
2023-02-08T09:47:43.295Z,14.77
2023-02-08T09:50:16.770Z,15.27
2023-02-08T09:52:59.514Z,15.10
2023-02-08T09:55:49.918Z,15.00
2023-02-08T09:58:32.862Z,15.77
2023-02-08T10:01:00.754Z,16.43
2023-02-08T10:03:42.451Z,14.90
2023-02-08T10:06:16.713Z,15.13
2023-02-08T10:08:46.416Z,16.27
2023-02-08T10:11:51.712Z,14.97
2023-02-08T10:14:54.561Z,13.63
2023-02-08T10:18:02.104Z,14.23
2023-02-08T10:21:19.956Z,14.07
2023-02-08T10:24:23.690Z,14.13
2023-02-08T10:27:08.508Z,14.27
2023-02-08T10:29:59.812Z,14.80
2023-02-08T10:32:49.319Z,15.83
2023-02-08T10:35:39.180Z,14.63
2023-02-08T10:38:44.238Z,15.13
2023-02-08T10:41:20.459Z,14.03
2023-02-08T10:44:01.342Z,14.40
2023-02-08T10:46:43.697Z,13.67
2023-02-08T10:49:35.384Z,14.30
2023-02-08T10:52:02.649Z,14.60
2023-02-08T10:54:29.551Z,13.67
2023-02-08T10:57:03.041Z,14.00
2023-02-08T10:59:57.522Z,14.17
2023-02-08T11:02:28.864Z,13.33
2023-02-08T11:05:07.996Z,14.53
2023-02-08T11:07:36.674Z,12.10
2023-02-08T11:10:19.019Z,12.53
2023-02-08T11:13:23.528Z,12.27
2023-02-08T11:15:56.625Z,13.00
2023-02-08T11:18:41.399Z,12.90
2023-02-08T11:21:21.772Z,13.73
2023-02-08T11:23:53.192Z,12.53
2023-02-08T11:26:36.810Z,13.60
2023-02-08T11:29:16.015Z,13.67
2023-02-08T11:32:17.466Z,13.40
2023-02-08T11:34:44.551Z,12.43
2023-02-08T11:37:28.436Z,13.17
2023-02-08T11:39:58.494Z,12.83
2023-02-08T11:42:30.196Z,12.57
2023-02-08T11:44:59.736Z,12.07
2023-02-08T11:47:32.533Z,13.00
2023-02-08T11:50:06.274Z,13.07
2023-02-08T11:52:39.317Z,12.00
2023-02-08T11:55:28.784Z,12.80
2023-02-08T11:58:20.531Z,12.77
2023-02-08T12:00:59.094Z,12.93
2023-02-08T12:03:33.717Z,13.43
2023-02-08T12:06:08.412Z,12.73
2023-02-08T12:09:11.556Z,12.77
2023-02-08T12:11:45.833Z,12.23
2023-02-08T12:14:44.864Z,12.20
2023-02-08T12:18:09.021Z,12.50
2023-02-08T12:20:45.327Z,12.63
2023-02-08T12:23:42.856Z,12.40
2023-02-08T12:26:49.223Z,11.70
2023-02-08T12:29:53.756Z,11.40
2023-02-08T12:32:35.215Z,12.60
2023-02-08T12:36:32.505Z,12.40
2023-02-08T12:39:39.423Z,12.33
2023-02-08T12:42:23.205Z,12.40
2023-02-08T12:45:32.604Z,12.30
2023-02-08T12:48:08.617Z,11.47
2023-02-08T12:50:57.226Z,12.23
2023-02-08T12:54:00.760Z,11.93
2023-02-08T12:56:36.168Z,12.40
2023-02-08T12:59:13.610Z,11.57
2023-02-08T13:01:51.215Z,11.57
2023-02-08T13:04:27.990Z,12.40
2023-02-08T13:07:03.088Z,11.60
2023-02-08T13:09:34.441Z,12.60
2023-02-08T13:12:30.679Z,12.43
2023-02-08T13:15:30.637Z,11.40
2023-02-08T13:18:30.300Z,11.63
2023-02-08T13:21:15.005Z,12.30
2023-02-08T13:23:52.484Z,11.77
2023-02-08T13:26:27.723Z,12.20
2023-02-08T13:29:01.091Z,12.00
2023-02-08T13:31:41.368Z,11.47
2023-02-08T13:34:34.850Z,11.90
2023-02-08T13:37:16.665Z,10.77
2023-02-08T13:39:59.547Z,12.50
2023-02-08T13:43:00.402Z,10.93
2023-02-08T13:45:38.258Z,12.20
2023-02-08T13:48:08.438Z,11.50
2023-02-08T13:50:35.166Z,11.40
2023-02-08T13:53:03.441Z,11.10
2023-02-08T13:55:36.029Z,11.60
2023-02-08T13:58:48.593Z,11.13
2023-02-08T14:01:23.040Z,11.57
2023-02-08T14:04:08.186Z,10.93
2023-02-08T14:06:46.433Z,10.37
2023-02-08T14:09:39.593Z,11.87
2023-02-08T14:12:31.785Z,15.10
2023-02-08T14:15:15.214Z,12.13
2023-02-08T14:17:45.434Z,11.23
2023-02-08T14:20:21.898Z,10.70
2023-02-08T14:23:03.228Z,10.67
2023-02-08T14:25:43.058Z,10.07
2023-02-08T14:28:45.978Z,10.70
2023-02-08T14:31:15.644Z,9.80
2023-02-08T14:33:53.325Z,10.87
2023-02-08T14:36:32.102Z,10.03
2023-02-08T14:39:29.124Z,10.57
2023-02-08T14:42:08.831Z,10.90
2023-02-08T14:44:38.836Z,13.10
2023-02-08T14:47:36.848Z,10.70
2023-02-08T14:50:29.086Z,11.67
2023-02-08T14:53:13.109Z,10.00
2023-02-08T14:55:56.919Z,10.20
2023-02-08T14:58:38.150Z,9.67
2023-02-08T15:01:31.924Z,10.33
2023-02-08T15:04:02.246Z,9.27
2023-02-08T15:06:38.415Z,10.37
2023-02-08T15:09:19.287Z,10.00
2023-02-08T15:12:14.308Z,9.93
2023-02-08T15:14:42.918Z,10.20
2023-02-08T15:17:41.483Z,9.80
2023-02-08T15:20:28.447Z,9.50
2023-02-08T15:23:20.827Z,10.13
2023-02-08T15:26:04.645Z,9.77
2023-02-08T15:28:36.299Z,9.67
2023-02-08T15:31:11.852Z,9.57
2023-02-08T15:33:40.523Z,9.97
2023-02-08T15:36:33.743Z,9.57
2023-02-08T15:39:10.198Z,9.57
2023-02-08T15:41:38.143Z,9.23
2023-02-08T15:44:21.082Z,9.57
2023-02-08T15:46:49.463Z,9.00
2023-02-08T15:49:23.122Z,9.03
2023-02-08T15:51:50.971Z,9.40
2023-02-08T15:54:19.260Z,9.63
2023-02-08T15:57:28.195Z,9.63
2023-02-08T15:59:55.605Z,9.37
2023-02-08T16:02:35.397Z,8.97
2023-02-08T16:05:16.178Z,9.70
2023-02-08T16:07:47.289Z,10.37
2023-02-08T16:10:30.673Z,9.93
2023-02-08T16:13:01.787Z,10.50
2023-02-08T16:15:50.517Z,10.23
2023-02-08T16:18:41.784Z,9.37
2023-02-08T16:21:40.206Z,9.80
2023-02-08T16:24:12.890Z,10.40
2023-02-08T16:26:45.531Z,9.33
2023-02-08T16:29:29.890Z,9.43
2023-02-08T16:32:29.415Z,9.67
2023-02-08T16:34:57.032Z,8.53
2023-02-08T16:37:27.458Z,8.83
2023-02-08T16:40:02.403Z,8.80
2023-02-08T16:42:40.258Z,10.23
2023-02-08T16:45:22.599Z,8.37
2023-02-08T16:48:01.926Z,10.07
2023-02-08T16:50:33.813Z,9.50
2023-02-08T16:53:03.563Z,8.83
2023-02-08T16:55:32.986Z,8.87
2023-02-08T16:58:00.371Z,9.97
2023-02-08T17:00:34.340Z,9.47
2023-02-08T17:03:01.950Z,8.33
2023-02-08T17:05:38.448Z,8.97
2023-02-08T17:08:09.871Z,9.67
2023-02-08T17:10:37.149Z,8.10
2023-02-08T17:13:19.449Z,7.27
2023-02-08T17:15:49.389Z,6.90
2023-02-08T17:18:16.480Z,8.47
2023-02-08T17:20:44.356Z,7.53
2023-02-08T17:23:11.788Z,7.07
2023-02-08T17:25:38.831Z,8.10
2023-02-08T17:28:18.246Z,7.93
2023-02-08T17:30:47.158Z,7.63
2023-02-08T17:33:20.366Z,6.77
2023-02-08T17:35:52.018Z,7.07
2023-02-08T17:38:20.456Z,6.77
2023-02-08T17:40:48.575Z,7.20
2023-02-08T17:43:15.852Z,7.53
2023-02-08T17:45:44.173Z,7.50
2023-02-08T17:48:13.483Z,6.83
2023-02-08T17:50:43.990Z,7.40
2023-02-08T17:53:12.203Z,7.33
2023-02-08T17:55:42.757Z,7.23
2023-02-08T17:58:09.835Z,7.50
2023-02-08T18:00:37.020Z,7.37
2023-02-08T18:03:03.954Z,6.63
2023-02-08T18:05:31.194Z,6.40
2023-02-08T18:07:58.026Z,6.77
2023-02-08T18:10:25.913Z,6.13
2023-02-08T18:12:52.822Z,6.70
2023-02-08T18:15:22.316Z,6.83
2023-02-08T18:17:50.475Z,6.57
2023-02-08T18:20:18.261Z,7.00
2023-02-08T18:22:45.799Z,8.90
2023-02-08T18:25:14.454Z,10.53
2023-02-08T18:27:41.652Z,11.10
2023-02-08T18:30:11.328Z,8.50
2023-02-08T18:32:38.667Z,7.30
2023-02-08T18:35:07.368Z,6.33
2023-02-08T18:37:36.663Z,7.90
2023-02-08T18:40:06.754Z,7.13
2023-02-08T18:42:35.874Z,6.67
2023-02-08T18:45:04.762Z,7.10
2023-02-08T18:47:31.553Z,6.43
2023-02-08T18:49:58.465Z,7.73
2023-02-08T18:52:25.384Z,7.23
2023-02-08T18:54:52.322Z,7.33
2023-02-08T18:57:19.844Z,9.07
2023-02-08T18:59:46.796Z,8.00
2023-02-08T19:02:22.190Z,7.20
2023-02-08T19:04:49.281Z,7.80
2023-02-08T19:07:16.277Z,7.57
2023-02-08T19:09:43.969Z,7.80
2023-02-08T19:12:15.111Z,9.73
2023-02-08T19:14:43.190Z,7.30
2023-02-08T19:17:10.765Z,8.10
2023-02-08T19:19:38.672Z,6.73
2023-02-08T19:22:05.448Z,7.00
2023-02-08T19:24:32.328Z,6.47
2023-02-08T19:26:59.155Z,6.77
2023-02-08T19:29:26.010Z,6.53
2023-02-08T19:31:52.981Z,6.50
2023-02-08T19:34:20.019Z,6.23
2023-02-08T19:36:51.705Z,7.17
2023-02-08T19:39:23.940Z,7.33
2023-02-08T19:41:52.795Z,7.80
2023-02-08T19:44:21.053Z,7.07
2023-02-08T19:46:54.274Z,7.03
2023-02-08T19:49:23.687Z,6.17
2023-02-08T19:51:50.552Z,7.33
2023-02-08T19:54:19.316Z,6.60
2023-02-08T19:56:47.145Z,6.70
2023-02-08T19:59:22.071Z,6.90
2023-02-08T20:01:49.489Z,6.63
2023-02-08T20:04:16.408Z,6.77
2023-02-08T20:06:45.023Z,7.53
2023-02-08T20:09:13.261Z,6.80
2023-02-08T20:11:55.829Z,6.60
2023-02-08T20:14:24.540Z,6.53
2023-02-08T20:16:51.449Z,7.33
2023-02-08T20:19:18.420Z,6.80
2023-02-08T20:21:45.555Z,6.83
2023-02-08T20:24:13.038Z,6.63
2023-02-08T20:26:43.122Z,6.80
2023-02-08T20:29:11.389Z,7.20
2023-02-08T20:31:42.554Z,6.40
2023-02-08T20:34:13.386Z,6.23
2023-02-08T20:36:45.021Z,5.80
2023-02-08T20:39:18.824Z,6.83
2023-02-08T20:41:47.345Z,6.47
2023-02-08T20:44:17.251Z,6.03
2023-02-08T20:46:44.546Z,5.43
2023-02-08T20:49:15.129Z,5.50
2023-02-08T20:51:43.215Z,5.10
2023-02-08T20:54:10.597Z,5.77
2023-02-08T20:56:38.638Z,5.60
2023-02-08T20:59:09.162Z,5.47
2023-02-08T21:01:36.810Z,5.60
2023-02-08T21:04:05.103Z,5.93
2023-02-08T21:06:36.471Z,5.73
2023-02-08T21:09:09.770Z,5.63
2023-02-08T21:11:36.660Z,6.37
2023-02-08T21:14:05.182Z,5.20
2023-02-08T21:16:33.142Z,6.03
2023-02-08T21:19:00.635Z,6.03
2023-02-08T21:21:28.493Z,5.57
2023-02-08T21:23:57.851Z,5.20
2023-02-08T21:26:25.955Z,6.10
2023-02-08T21:28:55.280Z,5.50
2023-02-08T21:31:24.437Z,5.60
2023-02-08T21:33:52.412Z,5.63
2023-02-08T21:36:23.178Z,5.77
2023-02-08T21:38:50.708Z,5.57
2023-02-08T21:41:24.843Z,6.37
2023-02-08T21:43:55.629Z,7.30
2023-02-08T21:46:24.671Z,6.17
2023-02-08T21:49:10.537Z,5.23
2023-02-08T21:51:56.190Z,6.40
2023-02-08T21:54:42.523Z,7.73
2023-02-08T21:57:18.787Z,7.70
2023-02-08T21:59:48.713Z,7.47
2023-02-08T22:02:25.798Z,8.27
2023-02-08T22:05:13.796Z,7.70
2023-02-08T22:07:47.001Z,7.80
2023-02-08T22:10:18.476Z,7.27
2023-02-08T22:12:47.114Z,6.77
2023-02-08T22:15:17.174Z,6.37
2023-02-08T22:17:44.209Z,6.83
2023-02-08T22:20:12.411Z,6.20
2023-02-08T22:22:40.319Z,5.90
2023-02-08T22:25:07.556Z,6.00
2023-02-08T22:27:34.346Z,7.37
2023-02-08T22:30:01.190Z,6.17
2023-02-08T22:32:27.996Z,6.40
2023-02-08T22:34:54.855Z,6.50
2023-02-08T22:37:21.672Z,6.23
2023-02-08T22:39:48.547Z,6.73
2023-02-08T22:42:15.513Z,6.57
2023-02-08T22:44:44.572Z,6.27
2023-02-08T22:47:13.723Z,6.80
2023-02-08T22:49:40.967Z,6.60
2023-02-08T22:52:08.730Z,6.60
2023-02-08T22:54:35.947Z,6.00
2023-02-08T22:57:03.811Z,6.40
2023-02-08T22:59:30.754Z,6.17
2023-02-08T23:01:58.144Z,6.70
2023-02-08T23:04:25.537Z,6.17
2023-02-08T23:06:52.432Z,6.57
2023-02-08T23:09:19.477Z,6.40
2023-02-08T23:11:46.377Z,6.50
2023-02-08T23:14:13.186Z,5.93
2023-02-08T23:16:40.132Z,5.67
2023-02-08T23:19:06.982Z,6.93
2023-02-08T23:21:34.136Z,6.47
2023-02-08T23:24:01.034Z,6.60
2023-02-08T23:26:27.978Z,6.53
2023-02-08T23:28:54.801Z,6.40
2023-02-08T23:31:22.291Z,6.30
2023-02-08T23:33:49.863Z,7.33
2023-02-08T23:36:21.083Z,6.87
2023-02-08T23:38:48.633Z,6.80
2023-02-08T23:41:20.329Z,6.03
2023-02-08T23:43:48.683Z,6.83
2023-02-08T23:46:19.772Z,6.17
2023-02-08T23:48:47.753Z,7.27
2023-02-08T23:51:17.264Z,6.60
2023-02-08T23:53:44.674Z,7.07
2023-02-08T23:56:19.752Z,7.53
2023-02-08T23:58:49.904Z,6.37
